sensor_id;sensor_type;location;lat;lon;timestamp;P1;durP1;ratioP1;P2;durP2;ratioP2
20067;SDS011;10194;50.824;7.134;2022-09-09T00:09:49;77.72;;;70.43;;
20067;SDS011;10194;50.824;7.134;2022-09-09T00:12:46;79.63;;;71.97;;
20067;SDS011;10194;50.824;7.134;2022-09-09T00:15:43;77.45;;;70.05;;
20067;SDS011;10194;50.824;7.134;2022-09-09T00:21:37;75.88;;;68.47;;
20067;SDS011;10194;50.824;7.134;2022-09-09T00:24:11;77.18;;;69.65;;
20067;SDS011;10194;50.824;7.134;2022-09-09T00:26:53;77.75;;;70.05;;
20067;SDS011;10194;50.824;7.134;2022-09-09T00:32:36;77.68;;;70.07;;
20067;SDS011;10194;50.824;7.134;2022-09-09T00:35:04;77.10;;;69.70;;
20067;SDS011;10194;50.824;7.134;2022-09-09T00:37:47;77.55;;;70.05;;
20067;SDS011;10194;50.824;7.134;2022-09-09T00:40:31;77.35;;;70.00;;
20067;SDS011;10194;50.824;7.134;2022-09-09T00:48:50;77.85;;;70.40;;
20067;SDS011;10194;50.824;7.134;2022-09-09T00:59:48;77.30;;;69.90;;
20067;SDS011;10194;50.824;7.134;2022-09-09T01:04:54;77.97;;;70.38;;
20067;SDS011;10194;50.824;7.134;2022-09-09T01:07:25;78.60;;;71.00;;
20067;SDS011;10194;50.824;7.134;2022-09-09T01:12:25;79.72;;;71.93;;
20067;SDS011;10194;50.824;7.134;2022-09-09T01:17:57;78.25;;;70.65;;
20067;SDS011;10194;50.824;7.134;2022-09-09T01:20:31;78.35;;;70.85;;
20067;SDS011;10194;50.824;7.134;2022-09-09T01:29:16;77.72;;;70.13;;
20067;SDS011;10194;50.824;7.134;2022-09-09T01:34:57;79.18;;;71.10;;
20067;SDS011;10194;50.824;7.134;2022-09-09T01:37:23;77.80;;;70.32;;
20067;SDS011;10194;50.824;7.134;2022-09-09T01:39:48;78.95;;;71.35;;
20067;SDS011;10194;50.824;7.134;2022-09-09T01:42:15;78.00;;;70.47;;
20067;SDS011;10194;50.824;7.134;2022-09-09T01:44:42;80.72;;;72.75;;
20067;SDS011;10194;50.824;7.134;2022-09-09T01:47:08;79.85;;;72.07;;
20067;SDS011;10194;50.824;7.134;2022-09-09T01:49:34;79.43;;;71.72;;
20067;SDS011;10194;50.824;7.134;2022-09-09T01:52:00;78.63;;;71.05;;
20067;SDS011;10194;50.824;7.134;2022-09-09T01:54:26;79.72;;;72.18;;
20067;SDS011;10194;50.824;7.134;2022-09-09T02:02:41;79.03;;;71.57;;
20067;SDS011;10194;50.824;7.134;2022-09-09T02:05:38;78.20;;;70.65;;
20067;SDS011;10194;50.824;7.134;2022-09-09T02:08:47;77.63;;;70.13;;
20067;SDS011;10194;50.824;7.134;2022-09-09T02:11:19;79.75;;;71.95;;
20067;SDS011;10194;50.824;7.134;2022-09-09T02:14:00;78.93;;;71.40;;
20067;SDS011;10194;50.824;7.134;2022-09-09T02:16:41;78.32;;;71.00;;
20067;SDS011;10194;50.824;7.134;2022-09-09T02:19:49;78.68;;;71.07;;
20067;SDS011;10194;50.824;7.134;2022-09-09T02:22:24;78.68;;;71.13;;
20067;SDS011;10194;50.824;7.134;2022-09-09T02:24:52;78.07;;;70.63;;
20067;SDS011;10194;50.824;7.134;2022-09-09T02:27:24;80.32;;;72.75;;
20067;SDS011;10194;50.824;7.134;2022-09-09T02:29:50;79.07;;;71.55;;
20067;SDS011;10194;50.824;7.134;2022-09-09T02:32:18;79.28;;;71.68;;
20067;SDS011;10194;50.824;7.134;2022-09-09T02:34:53;78.80;;;71.20;;
20067;SDS011;10194;50.824;7.134;2022-09-09T02:37:25;79.57;;;71.88;;
20067;SDS011;10194;50.824;7.134;2022-09-09T02:39:58;79.00;;;71.22;;
20067;SDS011;10194;50.824;7.134;2022-09-09T02:42:24;80.40;;;72.68;;
20067;SDS011;10194;50.824;7.134;2022-09-09T02:44:50;79.35;;;72.00;;
20067;SDS011;10194;50.824;7.134;2022-09-09T02:47:22;79.13;;;71.63;;
20067;SDS011;10194;50.824;7.134;2022-09-09T02:50:17;78.18;;;70.68;;
20067;SDS011;10194;50.824;7.134;2022-09-09T02:53:09;82.03;;;74.20;;
20067;SDS011;10194;50.824;7.134;2022-09-09T02:55:47;81.20;;;72.95;;
20067;SDS011;10194;50.824;7.134;2022-09-09T02:58:31;79.15;;;71.45;;
20067;SDS011;10194;50.824;7.134;2022-09-09T03:00:57;79.72;;;72.10;;
20067;SDS011;10194;50.824;7.134;2022-09-09T03:03:23;79.50;;;71.85;;
20067;SDS011;10194;50.824;7.134;2022-09-09T03:05:49;79.45;;;71.95;;
20067;SDS011;10194;50.824;7.134;2022-09-09T03:08:15;85.35;;;77.65;;
20067;SDS011;10194;50.824;7.134;2022-09-09T03:10:42;79.60;;;71.95;;
20067;SDS011;10194;50.824;7.134;2022-09-09T03:13:08;79.47;;;71.70;;
20067;SDS011;10194;50.824;7.134;2022-09-09T03:15:34;78.93;;;71.30;;
20067;SDS011;10194;50.824;7.134;2022-09-09T03:18:00;79.30;;;71.57;;
20067;SDS011;10194;50.824;7.134;2022-09-09T03:20:27;79.82;;;72.28;;
20067;SDS011;10194;50.824;7.134;2022-09-09T03:22:54;82.13;;;73.85;;
20067;SDS011;10194;50.824;7.134;2022-09-09T03:25:21;79.07;;;71.43;;
20067;SDS011;10194;50.824;7.134;2022-09-09T03:27:51;80.35;;;72.57;;
20067;SDS011;10194;50.824;7.134;2022-09-09T03:30:23;78.82;;;71.15;;
20067;SDS011;10194;50.824;7.134;2022-09-09T03:32:51;83.35;;;75.18;;
20067;SDS011;10194;50.824;7.134;2022-09-09T03:35:17;78.85;;;71.15;;
20067;SDS011;10194;50.824;7.134;2022-09-09T03:37:43;79.80;;;72.20;;
20067;SDS011;10194;50.824;7.134;2022-09-09T03:40:09;80.55;;;72.75;;
20067;SDS011;10194;50.824;7.134;2022-09-09T03:42:36;79.70;;;72.15;;
20067;SDS011;10194;50.824;7.134;2022-09-09T03:45:03;79.70;;;71.75;;
20067;SDS011;10194;50.824;7.134;2022-09-09T03:47:31;79.85;;;72.20;;
20067;SDS011;10194;50.824;7.134;2022-09-09T03:49:57;80.60;;;72.95;;
20067;SDS011;10194;50.824;7.134;2022-09-09T03:52:22;79.30;;;71.45;;
20067;SDS011;10194;50.824;7.134;2022-09-09T03:54:50;80.45;;;72.50;;
20067;SDS011;10194;50.824;7.134;2022-09-09T03:57:16;79.38;;;71.78;;
20067;SDS011;10194;50.824;7.134;2022-09-09T03:59:42;79.90;;;72.13;;
20067;SDS011;10194;50.824;7.134;2022-09-09T04:02:08;80.13;;;72.25;;
20067;SDS011;10194;50.824;7.134;2022-09-09T04:04:35;79.72;;;72.25;;
20067;SDS011;10194;50.824;7.134;2022-09-09T04:07:00;79.80;;;72.22;;
20067;SDS011;10194;50.824;7.134;2022-09-09T04:09:27;80.28;;;72.75;;
20067;SDS011;10194;50.824;7.134;2022-09-09T04:11:53;79.95;;;72.28;;
20067;SDS011;10194;50.824;7.134;2022-09-09T04:14:19;79.88;;;72.20;;
20067;SDS011;10194;50.824;7.134;2022-09-09T04:16:46;79.40;;;71.80;;
20067;SDS011;10194;50.824;7.134;2022-09-09T04:19:12;80.32;;;72.63;;
20067;SDS011;10194;50.824;7.134;2022-09-09T04:21:39;81.32;;;73.65;;
20067;SDS011;10194;50.824;7.134;2022-09-09T04:24:08;81.18;;;73.50;;
20067;SDS011;10194;50.824;7.134;2022-09-09T04:26:34;80.90;;;73.05;;
20067;SDS011;10194;50.824;7.134;2022-09-09T04:29:01;80.18;;;72.20;;
20067;SDS011;10194;50.824;7.134;2022-09-09T04:31:28;81.40;;;73.45;;
20067;SDS011;10194;50.824;7.134;2022-09-09T04:33:55;81.97;;;73.93;;
20067;SDS011;10194;50.824;7.134;2022-09-09T04:36:21;80.97;;;73.20;;
20067;SDS011;10194;50.824;7.134;2022-09-09T04:38:47;80.38;;;72.78;;
20067;SDS011;10194;50.824;7.134;2022-09-09T04:41:16;84.28;;;75.93;;
20067;SDS011;10194;50.824;7.134;2022-09-09T04:43:42;80.72;;;73.03;;
20067;SDS011;10194;50.824;7.134;2022-09-09T04:46:08;79.97;;;72.25;;
20067;SDS011;10194;50.824;7.134;2022-09-09T04:48:34;80.32;;;72.63;;
20067;SDS011;10194;50.824;7.134;2022-09-09T04:51:06;80.07;;;72.32;;
20067;SDS011;10194;50.824;7.134;2022-09-09T04:53:34;79.90;;;72.20;;
20067;SDS011;10194;50.824;7.134;2022-09-09T04:56:01;78.05;;;70.75;;
20067;SDS011;10194;50.824;7.134;2022-09-09T04:58:35;80.22;;;72.70;;
20067;SDS011;10194;50.824;7.134;2022-09-09T05:03:32;80.55;;;72.93;;
20067;SDS011;10194;50.824;7.134;2022-09-09T05:06:02;79.78;;;71.80;;
20067;SDS011;10194;50.824;7.134;2022-09-09T05:08:46;80.18;;;72.55;;
20067;SDS011;10194;50.824;7.134;2022-09-09T05:13:49;79.13;;;71.72;;
20067;SDS011;10194;50.824;7.134;2022-09-09T05:16:15;79.95;;;72.45;;
20067;SDS011;10194;50.824;7.134;2022-09-09T05:18:43;80.00;;;72.40;;
20067;SDS011;10194;50.824;7.134;2022-09-09T05:21:10;80.00;;;72.20;;
20067;SDS011;10194;50.824;7.134;2022-09-09T05:23:37;81.63;;;73.68;;
20067;SDS011;10194;50.824;7.134;2022-09-09T05:26:04;78.93;;;71.30;;
20067;SDS011;10194;50.824;7.134;2022-09-09T05:28:33;80.20;;;72.50;;
20067;SDS011;10194;50.824;7.134;2022-09-09T05:31:04;79.60;;;72.10;;
20067;SDS011;10194;50.824;7.134;2022-09-09T05:33:38;79.50;;;72.00;;
20067;SDS011;10194;50.824;7.134;2022-09-09T05:36:08;81.03;;;73.32;;
20067;SDS011;10194;50.824;7.134;2022-09-09T05:38:39;80.88;;;73.07;;
20067;SDS011;10194;50.824;7.134;2022-09-09T05:41:06;80.95;;;73.13;;
20067;SDS011;10194;50.824;7.134;2022-09-09T05:43:33;79.35;;;71.63;;
20067;SDS011;10194;50.824;7.134;2022-09-09T05:46:10;79.07;;;71.28;;
20067;SDS011;10194;50.824;7.134;2022-09-09T05:48:48;78.68;;;71.13;;
20067;SDS011;10194;50.824;7.134;2022-09-09T05:51:17;79.63;;;72.18;;
20067;SDS011;10194;50.824;7.134;2022-09-09T05:53:49;79.63;;;71.90;;
20067;SDS011;10194;50.824;7.134;2022-09-09T05:56:20;80.15;;;72.18;;
20067;SDS011;10194;50.824;7.134;2022-09-09T05:58:50;79.75;;;71.97;;
20067;SDS011;10194;50.824;7.134;2022-09-09T06:01:19;80.13;;;72.22;;
20067;SDS011;10194;50.824;7.134;2022-09-09T06:03:58;78.75;;;71.18;;
20067;SDS011;10194;50.824;7.134;2022-09-09T06:06:30;80.72;;;73.03;;
20067;SDS011;10194;50.824;7.134;2022-09-09T06:09:02;80.45;;;72.72;;
20067;SDS011;10194;50.824;7.134;2022-09-09T06:11:32;81.95;;;74.25;;
20067;SDS011;10194;50.824;7.134;2022-09-09T06:14:01;79.15;;;71.70;;
20067;SDS011;10194;50.824;7.134;2022-09-09T06:16:27;80.97;;;73.35;;
20067;SDS011;10194;50.824;7.134;2022-09-09T06:18:55;79.78;;;72.28;;
20067;SDS011;10194;50.824;7.134;2022-09-09T06:21:26;81.18;;;73.38;;
20067;SDS011;10194;50.824;7.134;2022-09-09T06:23:59;80.65;;;73.05;;
20067;SDS011;10194;50.824;7.134;2022-09-09T06:26:29;82.07;;;74.38;;
20067;SDS011;10194;50.824;7.134;2022-09-09T06:28:58;82.13;;;74.55;;
20067;SDS011;10194;50.824;7.134;2022-09-09T06:31:25;82.10;;;74.70;;
20067;SDS011;10194;50.824;7.134;2022-09-09T06:33:55;81.40;;;74.07;;
20067;SDS011;10194;50.824;7.134;2022-09-09T06:36:23;82.03;;;74.53;;
20067;SDS011;10194;50.824;7.134;2022-09-09T06:38:51;84.47;;;76.88;;
20067;SDS011;10194;50.824;7.134;2022-09-09T06:41:18;88.22;;;80.45;;
20067;SDS011;10194;50.824;7.134;2022-09-09T06:43:46;89.93;;;82.22;;
20067;SDS011;10194;50.824;7.134;2022-09-09T06:46:16;89.55;;;82.05;;
20067;SDS011;10194;50.824;7.134;2022-09-09T06:48:44;88.88;;;80.93;;
20067;SDS011;10194;50.824;7.134;2022-09-09T06:53:43;86.82;;;79.30;;
20067;SDS011;10194;50.824;7.134;2022-09-09T06:58:43;92.03;;;84.43;;
20067;SDS011;10194;50.824;7.134;2022-09-09T07:01:11;95.80;;;87.88;;
20067;SDS011;10194;50.824;7.134;2022-09-09T07:03:39;95.10;;;87.45;;
20067;SDS011;10194;50.824;7.134;2022-09-09T07:06:05;96.05;;;88.47;;
20067;SDS011;10194;50.824;7.134;2022-09-09T07:08:33;96.85;;;89.40;;
20067;SDS011;10194;50.824;7.134;2022-09-09T07:11:03;100.25;;;92.53;;
20067;SDS011;10194;50.824;7.134;2022-09-09T07:13:31;100.13;;;92.55;;
20067;SDS011;10194;50.824;7.134;2022-09-09T07:16:04;101.53;;;93.43;;
20067;SDS011;10194;50.824;7.134;2022-09-09T07:18:39;97.35;;;89.47;;
20067;SDS011;10194;50.824;7.134;2022-09-09T07:21:06;96.13;;;88.55;;
20067;SDS011;10194;50.824;7.134;2022-09-09T07:23:33;95.72;;;88.13;;
20067;SDS011;10194;50.824;7.134;2022-09-09T07:26:01;94.57;;;86.90;;
20067;SDS011;10194;50.824;7.134;2022-09-09T07:28:28;91.55;;;84.15;;
20067;SDS011;10194;50.824;7.134;2022-09-09T07:30:56;95.85;;;87.28;;
20067;SDS011;10194;50.824;7.134;2022-09-09T07:33:27;96.68;;;87.82;;
20067;SDS011;10194;50.824;7.134;2022-09-09T07:36:01;95.82;;;87.22;;
20067;SDS011;10194;50.824;7.134;2022-09-09T07:38:42;94.07;;;85.47;;
20067;SDS011;10194;50.824;7.134;2022-09-09T07:41:12;96.15;;;87.43;;
20067;SDS011;10194;50.824;7.134;2022-09-09T07:43:42;96.55;;;88.10;;
20067;SDS011;10194;50.824;7.134;2022-09-09T07:46:10;98.53;;;89.47;;
20067;SDS011;10194;50.824;7.134;2022-09-09T07:48:43;95.70;;;87.30;;
20067;SDS011;10194;50.824;7.134;2022-09-09T07:51:18;95.88;;;87.13;;
20067;SDS011;10194;50.824;7.134;2022-09-09T07:53:54;94.97;;;86.53;;
20067;SDS011;10194;50.824;7.134;2022-09-09T07:56:30;95.15;;;86.65;;
20067;SDS011;10194;50.824;7.134;2022-09-09T07:58:57;92.97;;;84.47;;
20067;SDS011;10194;50.824;7.134;2022-09-09T08:01:29;93.18;;;84.53;;
20067;SDS011;10194;50.824;7.134;2022-09-09T08:04:01;93.60;;;84.90;;
20067;SDS011;10194;50.824;7.134;2022-09-09T08:06:31;89.03;;;80.78;;
20067;SDS011;10194;50.824;7.134;2022-09-09T08:09:01;88.15;;;79.90;;
20067;SDS011;10194;50.824;7.134;2022-09-09T08:11:29;86.95;;;78.85;;
20067;SDS011;10194;50.824;7.134;2022-09-09T08:13:55;88.68;;;80.28;;
20067;SDS011;10194;50.824;7.134;2022-09-09T08:16:23;88.55;;;79.80;;
20067;SDS011;10194;50.824;7.134;2022-09-09T08:18:52;88.40;;;79.63;;
20067;SDS011;10194;50.824;7.134;2022-09-09T08:21:20;88.15;;;79.82;;
20067;SDS011;10194;50.824;7.134;2022-09-09T08:23:50;89.97;;;81.28;;
20067;SDS011;10194;50.824;7.134;2022-09-09T08:26:19;89.32;;;80.88;;
20067;SDS011;10194;50.824;7.134;2022-09-09T08:28:54;87.45;;;79.10;;
20067;SDS011;10194;50.824;7.134;2022-09-09T08:31:23;88.60;;;79.93;;
20067;SDS011;10194;50.824;7.134;2022-09-09T08:33:58;89.53;;;80.97;;
20067;SDS011;10194;50.824;7.134;2022-09-09T08:36:25;89.93;;;81.45;;
20067;SDS011;10194;50.824;7.134;2022-09-09T08:38:55;89.45;;;80.93;;
20067;SDS011;10194;50.824;7.134;2022-09-09T08:50:02;87.22;;;79.03;;
20067;SDS011;10194;50.824;7.134;2022-09-09T08:55:48;85.00;;;77.10;;
20067;SDS011;10194;50.824;7.134;2022-09-09T08:58:21;85.60;;;77.35;;
20067;SDS011;10194;50.824;7.134;2022-09-09T09:09:02;86.35;;;78.38;;
20067;SDS011;10194;50.824;7.134;2022-09-09T09:12:02;87.32;;;78.93;;
20067;SDS011;10194;50.824;7.134;2022-09-09T09:14:45;87.22;;;79.03;;
20067;SDS011;10194;50.824;7.134;2022-09-09T09:17:14;86.57;;;78.57;;
20067;SDS011;10194;50.824;7.134;2022-09-09T09:19:48;87.35;;;79.25;;
20067;SDS011;10194;50.824;7.134;2022-09-09T09:24:57;89.53;;;81.32;;
20067;SDS011;10194;50.824;7.134;2022-09-09T09:27:52;90.57;;;82.07;;
20067;SDS011;10194;50.824;7.134;2022-09-09T09:30:35;87.68;;;79.57;;
20067;SDS011;10194;50.824;7.134;2022-09-09T09:33:15;88.50;;;80.22;;
20067;SDS011;10194;50.824;7.134;2022-09-09T09:35:52;87.32;;;79.15;;
20067;SDS011;10194;50.824;7.134;2022-09-09T09:38:25;88.15;;;79.90;;
20067;SDS011;10194;50.824;7.134;2022-09-09T09:40:56;86.53;;;78.40;;
20067;SDS011;10194;50.824;7.134;2022-09-09T09:43:33;86.72;;;78.53;;
20067;SDS011;10194;50.824;7.134;2022-09-09T09:46:04;87.68;;;79.38;;
20067;SDS011;10194;50.824;7.134;2022-09-09T09:48:44;87.13;;;78.95;;
20067;SDS011;10194;50.824;7.134;2022-09-09T09:51:12;86.95;;;78.85;;
20067;SDS011;10194;50.824;7.134;2022-09-09T09:53:41;87.50;;;79.22;;
20067;SDS011;10194;50.824;7.134;2022-09-09T09:56:11;89.65;;;81.25;;
20067;SDS011;10194;50.824;7.134;2022-09-09T10:01:29;88.15;;;79.88;;
20067;SDS011;10194;50.824;7.134;2022-09-09T10:04:00;87.85;;;79.60;;
20067;SDS011;10194;50.824;7.134;2022-09-09T10:06:39;85.97;;;77.97;;
20067;SDS011;10194;50.824;7.134;2022-09-09T10:11:57;87.25;;;79.28;;
20067;SDS011;10194;50.824;7.134;2022-09-09T10:14:46;89.05;;;80.95;;
20067;SDS011;10194;50.824;7.134;2022-09-09T10:20:59;90.32;;;82.15;;
20067;SDS011;10194;50.824;7.134;2022-09-09T10:26:28;89.10;;;80.95;;
20067;SDS011;10194;50.824;7.134;2022-09-09T10:51:40;87.95;;;79.82;;
20067;SDS011;10194;50.824;7.134;2022-09-09T10:54:23;87.70;;;79.57;;
20067;SDS011;10194;50.824;7.134;2022-09-09T10:57:09;87.38;;;79.40;;
20067;SDS011;10194;50.824;7.134;2022-09-09T10:59:58;90.00;;;81.70;;
20067;SDS011;10194;50.824;7.134;2022-09-09T11:02:31;91.57;;;83.07;;
20067;SDS011;10194;50.824;7.134;2022-09-09T11:08:19;93.60;;;84.55;;
20067;SDS011;10194;50.824;7.134;2022-09-09T11:10:58;92.63;;;83.97;;
20067;SDS011;10194;50.824;7.134;2022-09-09T11:13:39;91.97;;;83.85;;
20067;SDS011;10194;50.824;7.134;2022-09-09T11:19:05;93.00;;;84.70;;
20067;SDS011;10194;50.824;7.134;2022-09-09T11:21:42;92.50;;;84.20;;
20067;SDS011;10194;50.824;7.134;2022-09-09T11:24:26;92.85;;;84.43;;
20067;SDS011;10194;50.824;7.134;2022-09-09T11:33:18;91.40;;;83.25;;
20067;SDS011;10194;50.824;7.134;2022-09-09T11:42:45;93.63;;;85.20;;
20067;SDS011;10194;50.824;7.134;2022-09-09T11:45:22;92.20;;;83.90;;
20067;SDS011;10194;50.824;7.134;2022-09-09T11:47:54;91.18;;;83.05;;
20067;SDS011;10194;50.824;7.134;2022-09-09T11:52:48;95.55;;;86.78;;
20067;SDS011;10194;50.824;7.134;2022-09-09T11:57:58;92.38;;;84.18;;
20067;SDS011;10194;50.824;7.134;2022-09-09T12:09:06;90.55;;;82.32;;
20067;SDS011;10194;50.824;7.134;2022-09-09T12:11:45;91.63;;;83.43;;
20067;SDS011;10194;50.824;7.134;2022-09-09T12:14:21;92.15;;;83.75;;
20067;SDS011;10194;50.824;7.134;2022-09-09T12:19:46;91.93;;;83.28;;
20067;SDS011;10194;50.824;7.134;2022-09-09T12:24:50;94.15;;;85.57;;
20067;SDS011;10194;50.824;7.134;2022-09-09T12:27:45;92.55;;;84.15;;
20067;SDS011;10194;50.824;7.134;2022-09-09T12:30:24;93.72;;;85.22;;
20067;SDS011;10194;50.824;7.134;2022-09-09T12:33:01;112.27;;;103.47;;
20067;SDS011;10194;50.824;7.134;2022-09-09T12:35:36;96.82;;;88.35;;
20067;SDS011;10194;50.824;7.134;2022-09-09T12:38:03;96.97;;;88.55;;
20067;SDS011;10194;50.824;7.134;2022-09-09T12:40:36;93.35;;;85.05;;
20067;SDS011;10194;50.824;7.134;2022-09-09T12:43:02;95.75;;;87.55;;
